Churubusco, Indiana
Current Conditions -  °F | °C
As of 7:15 PM on Friday 28 Nov 2014 (Local Time) from KGWB Reporting Station
Overcast Overcast  
Wind Chill: 30°   Ceiling: 12000
Heat Index: 30°   Visibility: 10mi
Dew Point: 21°   Wind: 3mph
Humidity: 69%   Direction: 150°SSE
Pressure: 30.08"   Gusts: NA
Location:  41.23°N, 85.32°W
Report Text: KGWB 290015Z AUTO 15003KT 10SM OVC120 M01/M06 A3008 RMK AO2
Loading
Personal Weather Stations






























Interactive Weather Map New forecast layout! Learn more

10-Day Weather Forecast

Advertisements
Track Severe Weather on mobile